createdAt,value
2023-05-08T00:01:40.462Z,100387.00
2023-05-08T00:03:43.599Z,100384.88
2023-05-08T00:05:46.661Z,100391.03
2023-05-08T00:07:51.471Z,100395.03
2023-05-08T00:09:55.811Z,100396.19
2023-05-08T00:11:58.942Z,100393.69
2023-05-08T00:14:01.921Z,100386.53
2023-05-08T00:16:05.558Z,100385.19
2023-05-08T00:18:08.566Z,100388.31
2023-05-08T00:20:12.973Z,100385.06
2023-05-08T00:22:16.111Z,100377.13
2023-05-08T00:24:19.056Z,100379.97
2023-05-08T00:26:23.552Z,100382.28
2023-05-08T00:28:26.671Z,100378.81
2023-05-08T00:30:29.715Z,100378.81
2023-05-08T00:32:33.557Z,100365.31
2023-05-08T00:34:36.764Z,100368.34
2023-05-08T00:36:39.960Z,100372.81
2023-05-08T00:38:42.831Z,100379.16
2023-05-08T00:40:45.898Z,100380.47
2023-05-08T00:42:50.279Z,100376.28
2023-05-08T00:44:53.210Z,100373.13
2023-05-08T00:46:56.531Z,100377.09
2023-05-08T00:49:00.630Z,100381.91
2023-05-08T00:51:06.785Z,100380.72
2023-05-08T00:53:09.903Z,100392.00
2023-05-08T00:55:13.279Z,100386.22
2023-05-08T00:57:17.250Z,100392.97
2023-05-08T00:59:23.213Z,100388.38
2023-05-08T01:01:26.676Z,100391.25
2023-05-08T01:03:30.190Z,100395.22
2023-05-08T01:05:33.682Z,100387.91
2023-05-08T01:07:36.683Z,100391.78
2023-05-08T01:09:40.215Z,100401.09
2023-05-08T01:11:48.239Z,100393.19
2023-05-08T01:13:58.223Z,100394.31
2023-05-08T01:16:13.514Z,100393.34
2023-05-08T01:18:21.494Z,100398.16
2023-05-08T01:20:36.044Z,100390.06
2023-05-08T01:22:54.504Z,100397.22
2023-05-08T01:25:31.054Z,100403.78
2023-05-08T01:28:06.517Z,100409.13
2023-05-08T01:30:45.408Z,100404.94
2023-05-08T01:32:55.926Z,100407.81
2023-05-08T01:35:12.756Z,100405.69
2023-05-08T01:37:20.034Z,100408.53
2023-05-08T01:39:36.082Z,100399.03
2023-05-08T01:41:42.413Z,100399.06
2023-05-08T01:43:52.764Z,100394.78
2023-05-08T01:45:56.922Z,100401.09
2023-05-08T01:48:06.644Z,100396.47
2023-05-08T01:50:19.273Z,100402.13
2023-05-08T01:52:30.275Z,100400.13
2023-05-08T01:54:41.376Z,100400.50
2023-05-08T01:56:46.454Z,100396.66
2023-05-08T01:58:53.392Z,100395.34
2023-05-08T02:00:59.410Z,100405.66
2023-05-08T02:03:06.352Z,100400.84
2023-05-08T02:05:11.414Z,100401.03
2023-05-08T02:07:14.815Z,100402.88
2023-05-08T02:09:19.084Z,100404.53
2023-05-08T02:11:25.084Z,100400.22
2023-05-08T02:13:30.395Z,100396.88
2023-05-08T02:15:36.953Z,100412.38
2023-05-08T02:17:44.387Z,100406.72
2023-05-08T02:19:51.616Z,100402.53
2023-05-08T02:21:59.788Z,100397.53
2023-05-08T02:24:03.704Z,100401.22
2023-05-08T02:26:07.105Z,100401.69
2023-05-08T02:28:11.404Z,100392.38
2023-05-08T02:30:17.304Z,100401.38
2023-05-08T02:32:21.521Z,100392.53
2023-05-08T02:34:25.156Z,100402.19
2023-05-08T02:36:31.440Z,100388.88
2023-05-08T02:38:38.260Z,100402.19
2023-05-08T02:40:47.876Z,100393.19
2023-05-08T02:42:51.287Z,100407.84
2023-05-08T02:44:54.286Z,100408.38
2023-05-08T02:47:05.703Z,100421.34
2023-05-08T02:49:17.489Z,100418.84
2023-05-08T02:51:25.834Z,100418.53
2023-05-08T02:53:36.333Z,100426.94
2023-05-08T02:55:43.329Z,100423.78
2023-05-08T02:57:51.490Z,100427.59
2023-05-08T03:00:00.366Z,100419.28
2023-05-08T03:02:12.588Z,100422.75
2023-05-08T03:04:25.073Z,100423.59
2023-05-08T03:06:34.357Z,100422.28
2023-05-08T03:08:40.356Z,100423.28
2023-05-08T03:10:47.117Z,100428.97
2023-05-08T03:12:53.907Z,100429.13
2023-05-08T03:15:05.011Z,100431.81
2023-05-08T03:17:12.932Z,100434.97
2023-05-08T03:19:23.090Z,100435.00
2023-05-08T03:21:29.330Z,100433.16
2023-05-08T03:23:35.788Z,100435.81
2023-05-08T03:25:42.568Z,100431.16
2023-05-08T03:27:47.596Z,100430.19
2023-05-08T03:29:52.649Z,100444.66
2023-05-08T03:31:57.767Z,100435.84
2023-05-08T03:34:01.372Z,100439.19
2023-05-08T03:36:04.886Z,100437.00
2023-05-08T03:38:08.850Z,100433.84
2023-05-08T03:40:12.954Z,100427.19
2023-05-08T03:42:21.820Z,100431.38
2023-05-08T03:44:28.324Z,100437.03
2023-05-08T03:46:33.738Z,100429.84
2023-05-08T03:48:38.346Z,100434.03
2023-05-08T03:50:42.816Z,100434.34
2023-05-08T03:52:46.686Z,100436.34
2023-05-08T03:54:49.577Z,100437.84
2023-05-08T03:56:54.012Z,100440.84
2023-05-08T03:59:10.222Z,100438.53
2023-05-08T04:01:22.592Z,100443.38
2023-05-08T04:03:33.540Z,100440.69
2023-05-08T04:05:43.894Z,100437.72
2023-05-08T04:07:51.586Z,100442.69
2023-05-08T04:10:01.036Z,100439.38
2023-05-08T04:12:10.091Z,100440.38
2023-05-08T04:14:19.846Z,100449.88
2023-05-08T04:16:27.321Z,100449.53
2023-05-08T04:18:31.866Z,100445.53
2023-05-08T04:20:40.806Z,100452.53
2023-05-08T04:22:45.586Z,100452.53
2023-05-08T04:24:50.887Z,100459.03
2023-05-08T04:26:54.669Z,100458.03
2023-05-08T04:28:58.449Z,100460.53
2023-05-08T04:31:05.153Z,100463.56
2023-05-08T04:33:09.779Z,100469.88
2023-05-08T04:35:15.895Z,100466.53
2023-05-08T04:37:25.451Z,100473.22
2023-05-08T04:39:28.539Z,100468.72
2023-05-08T04:41:32.607Z,100472.53
2023-05-08T04:43:35.980Z,100471.88
2023-05-08T04:45:39.525Z,100470.34
2023-05-08T04:47:44.041Z,100471.31
2023-05-08T04:49:47.039Z,100466.81
2023-05-08T04:51:50.101Z,100478.16
2023-05-08T04:53:53.031Z,100482.34
2023-05-08T04:55:57.609Z,100481.84
2023-05-08T04:58:00.712Z,100483.50
2023-05-08T05:00:05.430Z,100488.09
2023-05-08T05:02:12.438Z,100482.94
2023-05-08T05:04:17.048Z,100492.47
2023-05-08T05:06:20.488Z,100495.63
2023-05-08T05:08:23.366Z,100495.31
2023-05-08T05:10:26.484Z,100496.59
2023-05-08T05:12:29.339Z,100498.50
2023-05-08T05:14:32.521Z,100504.00
2023-05-08T05:16:35.965Z,100503.78
2023-05-08T05:18:39.564Z,100506.47
2023-05-08T05:20:44.044Z,100508.09
2023-05-08T05:22:47.375Z,100506.25
2023-05-08T05:24:50.492Z,100512.75
2023-05-08T05:26:53.344Z,100515.06
2023-05-08T05:28:56.441Z,100510.78
2023-05-08T05:30:59.466Z,100505.66
2023-05-08T05:33:02.694Z,100513.13
2023-05-08T05:35:06.628Z,100505.59
2023-05-08T05:37:11.387Z,100507.69
2023-05-08T05:39:14.482Z,100513.69
2023-05-08T05:41:17.614Z,100508.91
2023-05-08T05:43:20.694Z,100523.91
2023-05-08T05:45:23.710Z,100519.50
2023-05-08T05:47:26.773Z,100516.31
2023-05-08T05:49:29.901Z,100518.53
2023-05-08T05:51:33.227Z,100522.31
2023-05-08T05:53:39.087Z,100519.69
2023-05-08T05:55:41.950Z,100518.38
2023-05-08T05:57:44.941Z,100519.38
2023-05-08T05:59:49.300Z,100530.72
2023-05-08T06:01:53.028Z,100533.84
2023-05-08T06:03:56.313Z,100529.91
2023-05-08T06:06:00.450Z,100543.75
2023-05-08T06:08:03.610Z,100541.81
2023-05-08T06:10:09.394Z,100541.81
2023-05-08T06:12:12.449Z,100540.06
2023-05-08T06:14:15.503Z,100540.34
2023-05-08T06:16:21.053Z,100549.25
2023-05-08T06:18:24.439Z,100549.91
2023-05-08T06:20:27.348Z,100550.41
2023-05-08T06:22:31.581Z,100550.31
2023-05-08T06:24:35.896Z,100557.72
2023-05-08T06:26:40.458Z,100555.44
2023-05-08T06:28:43.520Z,100555.38
2023-05-08T06:30:46.599Z,100553.69
2023-05-08T06:32:49.795Z,100555.97
2023-05-08T06:34:52.739Z,100564.34
2023-05-08T06:36:55.782Z,100565.44
2023-05-08T06:38:58.902Z,100563.47
2023-05-08T06:41:01.818Z,100566.25
2023-05-08T06:43:06.254Z,100569.81
2023-05-08T06:45:10.376Z,100562.03
2023-05-08T06:47:13.434Z,100570.19
2023-05-08T06:49:16.382Z,100568.31
2023-05-08T06:51:20.207Z,100579.94
2023-05-08T06:53:23.103Z,100570.28
2023-05-08T06:55:25.962Z,100575.78
2023-05-08T06:57:30.592Z,100572.16
2023-05-08T06:59:34.955Z,100590.34
2023-05-08T07:01:38.207Z,100578.94
2023-05-08T07:03:41.981Z,100575.47
2023-05-08T07:05:44.954Z,100573.81
2023-05-08T07:07:47.914Z,100575.28
2023-05-08T07:09:51.146Z,100582.75
2023-05-08T07:11:54.133Z,100571.50
2023-05-08T07:13:57.283Z,100580.50
2023-05-08T07:16:01.816Z,100582.72
2023-05-08T07:18:05.002Z,100585.31
2023-05-08T07:20:09.258Z,100594.63
2023-05-08T07:22:12.262Z,100588.84
2023-05-08T07:24:15.432Z,100588.44
2023-05-08T07:26:18.939Z,100599.56
2023-05-08T07:28:22.105Z,100593.47
2023-05-08T07:30:25.014Z,100606.88
2023-05-08T07:32:30.908Z,100601.44
2023-05-08T07:34:34.537Z,100605.22
2023-05-08T07:36:38.134Z,100613.03
2023-05-08T07:38:41.136Z,100609.19
2023-05-08T07:40:44.432Z,100616.88
2023-05-08T07:42:47.348Z,100603.75
2023-05-08T07:44:54.868Z,100613.75
2023-05-08T07:46:58.614Z,100619.66
2023-05-08T07:49:03.185Z,100609.31
2023-05-08T07:51:06.332Z,100609.50
2023-05-08T07:53:09.418Z,100625.88
2023-05-08T07:55:12.687Z,100613.25
2023-05-08T07:57:15.978Z,100628.63
2023-05-08T07:59:18.975Z,100622.63
2023-05-08T08:01:22.139Z,100636.44
2023-05-08T08:03:25.178Z,100633.28
2023-05-08T08:05:29.815Z,100627.03
2023-05-08T08:07:35.750Z,100618.19
2023-05-08T08:09:38.743Z,100628.59
2023-05-08T08:11:41.719Z,100622.59
2023-05-08T08:13:44.916Z,100629.09
2023-05-08T08:15:48.181Z,100618.53
2023-05-08T08:17:51.264Z,100616.13
2023-05-08T08:19:54.238Z,100616.50
2023-05-08T08:21:58.711Z,100618.75
2023-05-08T08:24:01.987Z,100608.38
2023-05-08T08:26:05.251Z,100625.47
2023-05-08T08:28:08.498Z,100630.06
2023-05-08T08:30:17.683Z,100621.84
2023-05-08T08:32:21.801Z,100623.59
2023-05-08T08:34:24.777Z,100629.63
2023-05-08T08:36:28.522Z,100625.59
2023-05-08T08:38:33.073Z,100628.22
2023-05-08T08:40:40.821Z,100622.91
2023-05-08T08:42:43.749Z,100629.03
2023-05-08T08:44:46.915Z,100624.06
2023-05-08T08:46:52.386Z,100621.63
2023-05-08T08:48:56.798Z,100635.28
2023-05-08T08:51:03.522Z,100632.41
2023-05-08T08:53:10.910Z,100631.50
2023-05-08T08:55:17.474Z,100631.78
2023-05-08T08:57:22.270Z,100622.94
2023-05-08T08:59:29.452Z,100623.50
2023-05-08T09:01:36.425Z,100631.75
2023-05-08T09:03:39.576Z,100630.94
2023-05-08T09:05:45.718Z,100642.31
2023-05-08T09:07:49.154Z,100632.25
2023-05-08T09:09:53.619Z,100631.59
2023-05-08T09:11:58.050Z,100631.50
2023-05-08T09:14:00.959Z,100621.53
2023-05-08T09:16:04.238Z,100632.56
2023-05-08T09:18:07.249Z,100629.06
2023-05-08T09:20:11.992Z,100640.31
2023-05-08T09:22:16.118Z,100625.06
2023-05-08T09:24:19.161Z,100626.81
2023-05-08T09:26:34.289Z,100622.38
2023-05-08T09:28:38.692Z,100616.91
2023-05-08T09:30:50.917Z,100630.78
2023-05-08T09:33:03.064Z,100624.94
2023-05-08T09:35:07.549Z,100632.09
2023-05-08T09:37:14.887Z,100628.78
2023-05-08T09:39:23.645Z,100623.56
2023-05-08T09:41:27.050Z,100624.66
2023-05-08T09:43:29.961Z,100617.31
2023-05-08T09:45:35.707Z,100623.72
2023-05-08T09:47:39.919Z,100623.72
2023-05-08T09:49:57.680Z,100617.19
2023-05-08T09:52:01.072Z,100625.00
2023-05-08T09:54:06.819Z,100620.06
2023-05-08T09:56:10.165Z,100624.69
2023-05-08T09:58:13.143Z,100619.16
2023-05-08T10:00:17.096Z,100627.88
2023-05-08T10:02:21.767Z,100615.03
2023-05-08T10:04:34.521Z,100614.50
2023-05-08T10:06:37.708Z,100612.28
2023-05-08T10:08:41.093Z,100613.50
2023-05-08T10:10:44.022Z,100612.69
2023-05-08T10:12:47.149Z,100616.47
2023-05-08T10:14:50.299Z,100617.72
2023-05-08T10:16:54.722Z,100608.34
2023-05-08T10:19:02.733Z,100597.69
2023-05-08T10:21:08.951Z,100600.84
2023-05-08T10:23:17.830Z,100595.03
2023-05-08T10:25:23.546Z,100594.34
2023-05-08T10:27:35.383Z,100588.88
2023-05-08T10:29:43.502Z,100599.69
2023-05-08T10:31:50.663Z,100593.41
2023-05-08T10:33:56.118Z,100592.56
2023-05-08T10:36:00.320Z,100588.00
2023-05-08T10:38:04.249Z,100597.38
2023-05-08T10:40:08.835Z,100604.22
2023-05-08T10:42:12.635Z,100578.69
2023-05-08T10:44:16.296Z,100583.75
2023-05-08T10:46:30.371Z,100584.66
2023-05-08T10:48:39.744Z,100585.81
2023-05-08T10:50:56.934Z,100580.38
2023-05-08T10:53:07.786Z,100564.47
2023-05-08T10:55:20.426Z,100560.69
2023-05-08T10:57:23.412Z,100567.34
2023-05-08T10:59:26.614Z,100569.09
2023-05-08T11:01:29.808Z,100571.97
2023-05-08T11:03:38.722Z,100576.59
2023-05-08T11:05:49.003Z,100572.16
2023-05-08T11:07:56.063Z,100567.59
2023-05-08T11:10:14.539Z,100568.09
2023-05-08T11:12:23.361Z,100565.34
2023-05-08T11:14:27.549Z,100557.97
2023-05-08T11:17:02.480Z,100561.28
2023-05-08T11:19:18.837Z,100556.31
2023-05-08T11:21:24.817Z,100549.72
2023-05-08T11:23:28.866Z,100558.75
2023-05-08T11:25:44.834Z,100552.00
2023-05-08T11:28:05.014Z,100552.78
2023-05-08T11:30:22.331Z,100549.28
2023-05-08T11:33:13.206Z,100547.50
2023-05-08T11:35:42.839Z,100542.38
2023-05-08T11:38:12.400Z,100535.41
2023-05-08T11:40:48.609Z,100527.75
2023-05-08T11:42:51.761Z,100529.19
2023-05-08T11:45:05.428Z,100532.19
2023-05-08T11:47:10.317Z,100534.53
2023-05-08T11:49:17.279Z,100531.09
2023-05-08T11:51:22.772Z,100526.19
2023-05-08T11:53:26.047Z,100532.38
2023-05-08T11:55:29.204Z,100535.50
2023-05-08T11:57:34.402Z,100526.66
2023-05-08T11:59:37.972Z,100525.56
2023-05-08T12:01:41.017Z,100524.84
2023-05-08T12:03:44.012Z,100530.47
2023-05-08T12:05:47.840Z,100517.22
2023-05-08T12:07:50.970Z,100533.00
2023-05-08T12:09:54.250Z,100533.53
2023-05-08T12:11:58.401Z,100525.22
2023-05-08T12:14:02.881Z,100527.59
2023-05-08T12:16:06.335Z,100535.59
2023-05-08T12:18:09.537Z,100533.25
2023-05-08T12:20:14.835Z,100538.31
2023-05-08T12:22:17.805Z,100535.38
2023-05-08T12:24:23.800Z,100522.00
2023-05-08T12:26:27.181Z,100527.47
2023-05-08T12:28:32.728Z,100536.78
2023-05-08T12:30:37.444Z,100531.22
2023-05-08T12:32:42.227Z,100527.28
2023-05-08T12:34:45.858Z,100530.44
2023-05-08T12:36:48.977Z,100530.25
2023-05-08T12:38:52.132Z,100532.34
2023-05-08T12:40:58.201Z,100524.50
2023-05-08T12:43:02.782Z,100534.63
2023-05-08T12:45:06.859Z,100528.25
2023-05-08T12:47:12.079Z,100524.78
2023-05-08T12:49:15.052Z,100538.66
2023-05-08T12:51:17.942Z,100532.72
2023-05-08T12:53:23.522Z,100528.72
2023-05-08T12:55:26.760Z,100524.44
2023-05-08T12:57:29.621Z,100524.75
2023-05-08T12:59:33.680Z,100521.69
2023-05-08T13:01:36.644Z,100523.47
2023-05-08T13:03:42.775Z,100516.13
2023-05-08T13:05:46.366Z,100523.81
2023-05-08T13:07:50.122Z,100523.19
2023-05-08T13:10:05.781Z,100509.94
2023-05-08T13:12:09.106Z,100521.97
2023-05-08T13:14:12.287Z,100518.19
2023-05-08T13:16:15.507Z,100519.78
2023-05-08T13:18:19.820Z,100522.72
2023-05-08T13:20:24.368Z,100512.59
2023-05-08T13:22:27.335Z,100509.56
2023-05-08T13:24:30.440Z,100525.13
2023-05-08T13:26:33.354Z,100528.00
2023-05-08T13:28:36.412Z,100521.34
2023-05-08T13:30:39.726Z,100519.13
2023-05-08T13:32:42.699Z,100514.69
2023-05-08T13:34:50.185Z,100526.44
2023-05-08T13:36:56.058Z,100501.50
2023-05-08T13:38:59.123Z,100521.22
2023-05-08T13:41:02.163Z,100506.53
2023-05-08T13:43:05.019Z,100520.41
2023-05-08T13:45:11.004Z,100514.13
2023-05-08T13:47:13.968Z,100507.59
2023-05-08T13:49:18.643Z,100506.03
2023-05-08T13:51:21.651Z,100500.22
2023-05-08T13:53:26.042Z,100499.22
2023-05-08T13:55:29.261Z,100500.78
2023-05-08T13:57:32.363Z,100500.59
2023-05-08T13:59:35.321Z,100504.59
2023-05-08T14:01:38.435Z,100499.47
2023-05-08T14:03:41.528Z,100509.03
2023-05-08T14:05:44.650Z,100509.66
2023-05-08T14:07:47.845Z,100513.06
2023-05-08T14:09:52.402Z,100507.72
2023-05-08T14:11:55.446Z,100504.47
2023-05-08T14:13:58.394Z,100507.91
2023-05-08T14:16:01.403Z,100498.50
2023-05-08T14:18:04.934Z,100492.88
2023-05-08T14:20:10.988Z,100502.22
2023-05-08T14:22:14.761Z,100495.88
2023-05-08T14:24:17.843Z,100496.06
2023-05-08T14:26:22.524Z,100495.88
2023-05-08T14:28:25.443Z,100499.06
2023-05-08T14:30:28.539Z,100486.88
2023-05-08T14:32:31.685Z,100488.53
2023-05-08T14:34:34.618Z,100488.19
2023-05-08T14:36:37.683Z,100494.81
2023-05-08T14:38:40.604Z,100500.06
2023-05-08T14:40:43.491Z,100503.72
2023-05-08T14:42:48.042Z,100499.59
2023-05-08T14:44:51.382Z,100502.81
2023-05-08T14:46:54.489Z,100500.69
2023-05-08T14:48:57.570Z,100507.41
2023-05-08T14:51:00.484Z,100509.84
2023-05-08T14:53:03.662Z,100509.56
2023-05-08T14:55:08.360Z,100505.31
2023-05-08T14:57:11.570Z,100509.63
2023-05-08T14:59:16.216Z,100509.47
2023-05-08T15:01:19.358Z,100506.16
2023-05-08T15:03:22.437Z,100502.66
2023-05-08T15:05:25.866Z,100502.47
2023-05-08T15:07:29.090Z,100507.22
2023-05-08T15:09:32.021Z,100504.56
2023-05-08T15:11:35.961Z,100501.34
2023-05-08T15:13:38.831Z,100494.22
2023-05-08T15:15:43.406Z,100504.09
2023-05-08T15:17:46.370Z,100504.63
2023-05-08T15:19:49.498Z,100503.63
2023-05-08T15:21:52.482Z,100494.72
2023-05-08T15:23:56.093Z,100499.34
2023-05-08T15:25:59.203Z,100504.28
2023-05-08T15:28:02.615Z,100500.91
2023-05-08T15:30:06.821Z,100497.38
2023-05-08T15:32:11.461Z,100499.84
2023-05-08T15:34:14.564Z,100498.44
2023-05-08T15:36:17.447Z,100493.75
2023-05-08T15:38:20.441Z,100492.44
2023-05-08T15:40:23.442Z,100483.84
2023-05-08T15:42:26.530Z,100506.94
2023-05-08T15:44:41.747Z,100501.44
2023-05-08T15:46:52.387Z,100512.44
2023-05-08T15:48:56.844Z,100512.91
2023-05-08T15:50:59.846Z,100515.41
2023-05-08T15:53:03.028Z,100515.63
2023-05-08T15:55:06.715Z,100506.28
2023-05-08T15:57:09.722Z,100514.94
2023-05-08T15:59:12.688Z,100500.41
2023-05-08T16:01:15.820Z,100502.25
2023-05-08T16:03:19.304Z,100496.03
2023-05-08T16:05:23.966Z,100495.81
2023-05-08T16:07:26.905Z,100497.41
2023-05-08T16:09:29.825Z,100491.78
2023-05-08T16:11:32.942Z,100494.72
2023-05-08T16:13:35.942Z,100499.78
2023-05-08T16:15:38.906Z,100497.16
2023-05-08T16:17:41.944Z,100499.63
2023-05-08T16:19:44.889Z,100486.75
2023-05-08T16:21:49.313Z,100496.72
2023-05-08T16:23:53.414Z,100494.03
2023-05-08T16:25:56.837Z,100486.38
2023-05-08T16:27:59.937Z,100492.13
2023-05-08T16:30:02.963Z,100487.75
2023-05-08T16:32:06.317Z,100493.63
2023-05-08T16:34:09.426Z,100497.16
2023-05-08T16:36:12.319Z,100493.00
2023-05-08T16:38:16.924Z,100493.41
2023-05-08T16:40:20.072Z,100505.41
2023-05-08T16:42:23.165Z,100503.78
2023-05-08T16:44:26.492Z,100509.59
2023-05-08T16:46:30.280Z,100501.69
2023-05-08T16:48:33.726Z,100497.75
2023-05-08T16:50:36.706Z,100502.13
2023-05-08T16:52:39.641Z,100499.22
2023-05-08T16:54:44.145Z,100497.94
2023-05-08T16:56:47.057Z,100496.31
2023-05-08T16:58:50.015Z,100496.13
2023-05-08T17:00:53.674Z,100505.88
2023-05-08T17:02:56.775Z,100510.81
2023-05-08T17:04:59.837Z,100500.50
2023-05-08T17:07:05.321Z,100500.03
2023-05-08T17:09:08.371Z,100499.84
2023-05-08T17:11:12.735Z,100504.38
2023-05-08T17:13:15.996Z,100494.38
2023-05-08T17:15:19.087Z,100491.66
2023-05-08T17:17:22.121Z,100492.50
2023-05-08T17:19:25.056Z,100502.91
2023-05-08T17:21:28.016Z,100496.69
2023-05-08T17:23:30.953Z,100500.81
2023-05-08T17:25:33.835Z,100499.75
2023-05-08T17:27:39.013Z,100497.25
2023-05-08T17:29:41.955Z,100504.91
2023-05-08T17:31:44.896Z,100505.50
2023-05-08T17:33:47.974Z,100495.78
2023-05-08T17:35:51.029Z,100495.34
2023-05-08T17:37:54.046Z,100492.50
2023-05-08T17:39:57.355Z,100496.00
2023-05-08T17:42:00.199Z,100491.41
2023-05-08T17:44:04.987Z,100488.31
2023-05-08T17:46:07.983Z,100492.88
2023-05-08T17:48:11.197Z,100500.91
2023-05-08T17:50:14.299Z,100487.03
2023-05-08T17:52:17.295Z,100498.41
2023-05-08T17:54:20.196Z,100496.50
2023-05-08T17:56:23.741Z,100498.94
2023-05-08T17:58:27.047Z,100497.25
2023-05-08T18:00:31.399Z,100499.19
2023-05-08T18:02:34.443Z,100505.53
2023-05-08T18:04:37.514Z,100502.38
2023-05-08T18:06:40.512Z,100500.06
2023-05-08T18:08:43.628Z,100503.16
2023-05-08T18:10:46.673Z,100507.41
2023-05-08T18:12:49.798Z,100513.66
2023-05-08T18:14:52.892Z,100500.91
2023-05-08T18:16:57.266Z,100503.44
2023-05-08T18:19:00.181Z,100508.31
2023-05-08T18:21:03.164Z,100507.06
2023-05-08T18:23:06.085Z,100508.16
2023-05-08T18:25:09.352Z,100509.75
2023-05-08T18:27:12.426Z,100507.34
2023-05-08T18:29:15.565Z,100511.75
2023-05-08T18:31:18.441Z,100515.53
2023-05-08T18:33:22.844Z,100508.97
2023-05-08T18:35:25.843Z,100521.00
2023-05-08T18:37:29.596Z,100510.28
2023-05-08T18:39:32.564Z,100520.19
2023-05-08T18:41:36.839Z,100527.28
2023-05-08T18:43:39.786Z,100522.88
2023-05-08T18:45:42.860Z,100518.63
2023-05-08T18:47:46.122Z,100520.81
2023-05-08T18:49:52.125Z,100516.44
2023-05-08T18:51:55.075Z,100515.09
2023-05-08T18:53:58.173Z,100528.06
2023-05-08T18:56:03.724Z,100522.16
2023-05-08T18:58:06.762Z,100523.84
2023-05-08T19:00:11.058Z,100521.59
2023-05-08T19:02:14.087Z,100525.13
2023-05-08T19:04:17.291Z,100528.38
2023-05-08T19:06:21.725Z,100526.22
2023-05-08T19:08:25.053Z,100530.22
2023-05-08T19:10:28.041Z,100527.25
2023-05-08T19:12:31.055Z,100540.66
2023-05-08T19:14:33.942Z,100530.72
2023-05-08T19:16:37.014Z,100541.78
2023-05-08T19:18:39.889Z,100532.78
2023-05-08T19:20:42.903Z,100526.22
2023-05-08T19:22:47.545Z,100529.63
2023-05-08T19:24:50.406Z,100526.38
2023-05-08T19:26:53.318Z,100523.41
2023-05-08T19:28:56.323Z,100533.75
2023-05-08T19:30:59.481Z,100534.38
2023-05-08T19:33:02.503Z,100528.66
2023-05-08T19:35:06.084Z,100526.53
2023-05-08T19:37:08.981Z,100529.31
2023-05-08T19:39:14.077Z,100532.84
2023-05-08T19:41:18.101Z,100529.91
2023-05-08T19:43:21.028Z,100524.91
2023-05-08T19:45:23.829Z,100519.59
2023-05-08T19:47:26.740Z,100518.56
2023-05-08T19:49:29.528Z,100518.44
2023-05-08T19:51:32.594Z,100519.00
2023-05-08T19:53:36.010Z,100519.19
2023-05-08T19:55:40.838Z,100518.69
2023-05-08T19:57:43.682Z,100513.16
2023-05-08T19:59:46.438Z,100515.88
2023-05-08T20:01:50.630Z,100512.41
2023-05-08T20:03:53.518Z,100516.09
2023-05-08T20:05:56.868Z,100510.22
2023-05-08T20:07:59.679Z,100516.25
2023-05-08T20:10:02.497Z,100506.97
2023-05-08T20:12:07.828Z,100511.03
2023-05-08T20:14:10.648Z,100513.19
2023-05-08T20:16:13.548Z,100510.34
2023-05-08T20:18:16.525Z,100509.19
2023-05-08T20:20:19.399Z,100494.03
2023-05-08T20:22:22.315Z,100502.56
2023-05-08T20:24:25.205Z,100499.03
2023-05-08T20:26:29.750Z,100501.72
2023-05-08T20:28:34.310Z,100499.53
2023-05-08T20:30:37.336Z,100505.56
2023-05-08T20:32:40.540Z,100498.88
2023-05-08T20:34:44.804Z,100508.88
2023-05-08T20:36:47.852Z,100498.72
2023-05-08T20:38:51.643Z,100497.06
2023-05-08T20:40:58.607Z,100498.56
2023-05-08T20:43:03.169Z,100491.22
2023-05-08T20:45:09.596Z,100495.38
2023-05-08T20:47:12.822Z,100491.88
2023-05-08T20:49:17.465Z,100487.53
2023-05-08T20:51:21.681Z,100488.88
2023-05-08T20:53:24.784Z,100493.03
2023-05-08T20:55:27.905Z,100495.00
2023-05-08T20:57:31.145Z,100496.78
2023-05-08T20:59:33.958Z,100501.13
2023-05-08T21:01:38.584Z,100500.28
2023-05-08T21:03:41.470Z,100492.97
2023-05-08T21:05:44.351Z,100494.13
2023-05-08T21:07:47.602Z,100492.78
2023-05-08T21:09:50.540Z,100491.50
2023-05-08T21:11:53.408Z,100493.78
2023-05-08T21:13:56.501Z,100491.06
2023-05-08T21:15:59.415Z,100489.53
2023-05-08T21:18:04.272Z,100486.03
2023-05-08T21:20:08.773Z,100486.88
2023-05-08T21:22:14.160Z,100486.03
2023-05-08T21:24:17.388Z,100481.84
2023-05-08T21:26:23.797Z,100483.66
2023-05-08T21:28:26.863Z,100482.19
2023-05-08T21:30:29.937Z,100487.88
2023-05-08T21:32:32.857Z,100485.69
2023-05-08T21:34:37.506Z,100485.31
2023-05-08T21:36:40.506Z,100485.59
2023-05-08T21:38:43.612Z,100481.56
2023-05-08T21:40:46.875Z,100489.66
2023-05-08T21:42:50.038Z,100488.97
2023-05-08T21:44:55.138Z,100491.19
2023-05-08T21:46:58.107Z,100475.75
2023-05-08T21:49:01.005Z,100475.09
2023-05-08T21:51:06.314Z,100478.44
2023-05-08T21:53:09.217Z,100473.84
2023-05-08T21:55:12.407Z,100469.88
2023-05-08T21:57:15.491Z,100469.53
2023-05-08T21:59:18.551Z,100471.75
2023-05-08T22:01:21.514Z,100466.78
2023-05-08T22:03:24.490Z,100462.97
2023-05-08T22:05:27.447Z,100467.34
2023-05-08T22:07:31.896Z,100466.34
2023-05-08T22:09:34.936Z,100468.34
2023-05-08T22:11:38.093Z,100468.34
2023-05-08T22:13:41.009Z,100472.19
2023-05-08T22:15:44.014Z,100467.97
2023-05-08T22:17:47.426Z,100466.78
2023-05-08T22:19:50.434Z,100463.94
2023-05-08T22:21:53.508Z,100467.91
2023-05-08T22:23:57.924Z,100466.03
2023-05-08T22:26:00.800Z,100465.53
2023-05-08T22:28:03.742Z,100462.41
2023-05-08T22:30:07.875Z,100461.97
2023-05-08T22:32:11.004Z,100464.47
2023-05-08T22:34:14.174Z,100447.56
2023-05-08T22:36:17.125Z,100467.28
2023-05-08T22:38:20.084Z,100461.78
2023-05-08T22:40:24.805Z,100459.72
2023-05-08T22:42:27.994Z,100456.69
2023-05-08T22:44:31.303Z,100447.56
2023-05-08T22:46:34.914Z,100454.56
2023-05-08T22:48:37.955Z,100444.81
2023-05-08T22:50:41.035Z,100444.13
2023-05-08T22:52:43.874Z,100449.16
2023-05-08T22:54:46.824Z,100439.47
2023-05-08T22:56:51.430Z,100442.97
2023-05-08T22:58:55.128Z,100448.09
2023-05-08T23:00:59.881Z,100443.19
2023-05-08T23:03:02.802Z,100446.63
2023-05-08T23:05:07.116Z,100443.13
2023-05-08T23:07:10.096Z,100443.28
2023-05-08T23:09:13.022Z,100438.06
2023-05-08T23:11:16.873Z,100436.38
2023-05-08T23:13:21.327Z,100444.75
2023-05-08T23:15:24.432Z,100437.91
2023-05-08T23:17:27.394Z,100443.56
2023-05-08T23:19:30.527Z,100435.41
2023-05-08T23:21:33.421Z,100444.28
2023-05-08T23:23:36.741Z,100427.66
2023-05-08T23:25:39.569Z,100427.44
2023-05-08T23:27:42.608Z,100422.41
2023-05-08T23:29:47.019Z,100429.03
2023-05-08T23:31:49.965Z,100427.81
2023-05-08T23:33:53.096Z,100423.84
2023-05-08T23:35:57.029Z,100415.78
2023-05-08T23:37:59.934Z,100422.94
2023-05-08T23:40:03.292Z,100416.63
2023-05-08T23:42:06.922Z,100420.94
2023-05-08T23:44:10.517Z,100421.94
2023-05-08T23:46:15.109Z,100422.13